Time;durP1;ratioP1;P1;durP2;ratioP2;P2;SDS_P1;SDS_P2;PMS_P1;PMS_P2;Temp;Humidity;BMP_temperature;BMP_pressure;BME280_temperature;BME280_humidity;BME280_pressure;Samples;Min_cycle;Max_cycle;Signal;HPM_P1;HPM_P2
2022/05/16 00:01:06;;;;;;;4.40;3.67;;;18.50;99.90;;;;;;5045248;28;20247;-59
2022/05/16 00:03:35;;;;;;;6.70;3.50;;;18.50;99.90;;;;;;5049979;28;20532;-59
2022/05/16 00:06:04;;;;;;;4.87;3.50;;;18.40;99.90;;;;;;5050605;28;20195;-59
2022/05/16 00:08:32;;;;;;;4.83;3.63;;;18.30;99.90;;;;;;5035974;28;20203;-59
2022/05/16 00:11:02;;;;;;;6.17;3.70;;;18.30;99.90;;;;;;5045766;28;20198;-59
2022/05/16 00:13:30;;;;;;;3.90;3.60;;;18.30;99.90;;;;;;5049304;28;20198;-59
2022/05/16 00:16:00;;;;;;;5.53;3.27;;;18.30;99.90;;;;;;5049743;28;20571;-59
2022/05/16 00:18:28;;;;;;;3.53;3.33;;;18.30;99.90;;;;;;5079865;28;20211;-59
2022/05/16 00:20:57;;;;;;;5.27;3.40;;;18.30;99.90;;;;;;5055698;28;20207;-59
2022/05/16 00:23:25;;;;;;;3.57;3.27;;;18.30;99.90;;;;;;5051092;28;20197;-59
2022/05/16 00:25:54;;;;;;;4.80;3.30;;;18.30;99.90;;;;;;5054311;28;20689;-59
2022/05/16 00:28:26;;;;;;;5.30;3.57;;;18.30;99.90;;;;;;5050568;28;20201;-59
2022/05/16 00:30:54;;;;;;;4.60;3.40;;;18.30;99.90;;;;;;5048808;28;20205;-59
2022/05/16 00:33:22;;;;;;;4.70;3.60;;;18.30;99.90;;;;;;5052924;28;20576;-59
2022/05/16 00:35:51;;;;;;;4.03;3.17;;;18.20;99.90;;;;;;5051641;28;20196;-59
2022/05/16 00:38:19;;;;;;;7.57;3.63;;;18.20;99.90;;;;;;5053267;28;20214;-59
2022/05/16 00:40:50;;;;;;;9.93;3.77;;;18.20;99.90;;;;;;5051451;28;20217;-59
2022/05/16 00:43:44;;;;;;;7.53;3.60;;;18.10;99.90;;;;;;5048456;28;20315;-59
2022/05/16 00:46:13;;;;;;;3.53;3.23;;;18.10;99.90;;;;;;5054524;28;20288;-59
2022/05/16 00:48:42;;;;;;;4.93;3.30;;;18.10;99.90;;;;;;5036744;28;20248;-59
2022/05/16 00:51:15;;;;;;;6.57;3.50;;;18.10;99.90;;;;;;5055267;28;20188;-59
2022/05/16 00:53:45;;;;;;;4.97;3.60;;;18.10;99.90;;;;;;5076171;28;20189;-59
2022/05/16 00:56:15;;;;;;;7.50;3.30;;;18.10;99.90;;;;;;5053955;28;20200;-59
2022/05/16 00:58:47;;;;;;;6.20;3.40;;;18.10;99.90;;;;;;5051653;28;20199;-59
2022/05/16 01:06:54;;;;;;;7.30;3.73;;;18.00;99.90;;;;;;5050254;28;20276;-59
2022/05/16 01:09:23;;;;;;;5.13;3.60;;;18.00;99.90;;;;;;5051077;28;20193;-59
2022/05/16 01:11:53;;;;;;;4.43;3.40;;;18.00;99.90;;;;;;5050414;28;20192;-59
2022/05/16 01:14:43;;;;;;;3.70;3.40;;;18.00;99.90;;;;;;5051565;28;20203;-59
2022/05/16 01:17:12;;;;;;;4.00;3.37;;;18.00;99.90;;;;;;5049563;28;20553;-59
2022/05/16 01:19:40;;;;;;;5.50;3.20;;;18.00;99.90;;;;;;5053497;28;20800;-59
2022/05/16 01:22:34;;;;;;;3.50;3.20;;;18.10;99.90;;;;;;5053249;28;20219;-60
2022/05/16 01:25:07;;;;;;;3.73;3.27;;;18.20;99.90;;;;;;5039428;28;20211;-59
2022/05/16 01:27:51;;;;;;;4.03;3.40;;;18.30;99.90;;;;;;5054163;28;20252;-59
2022/05/16 01:30:22;;;;;;;5.73;3.20;;;18.30;99.90;;;;;;5046740;28;20242;-59
2022/05/16 01:32:51;;;;;;;8.10;3.27;;;18.40;99.90;;;;;;5085081;28;20228;-59
2022/05/16 01:35:21;;;;;;;4.87;3.37;;;18.40;99.90;;;;;;5048551;28;20272;-59
2022/05/16 01:40:38;;;;;;;4.67;3.07;;;18.60;99.90;;;;;;5053523;28;20295;-59
2022/05/16 01:43:07;;;;;;;4.63;3.43;;;18.50;99.90;;;;;;5051952;28;20210;-59
2022/05/16 01:45:36;;;;;;;5.13;3.43;;;18.50;99.90;;;;;;5066836;28;20192;-60
2022/05/16 01:48:05;;;;;;;3.03;2.83;;;18.40;99.90;;;;;;5052121;28;20191;-61
2022/05/16 01:50:33;;;;;;;5.30;3.13;;;18.40;99.90;;;;;;5051815;28;20771;-61
2022/05/16 01:53:03;;;;;;;4.90;3.13;;;18.30;99.90;;;;;;5052609;28;20217;-61
2022/05/16 01:55:32;;;;;;;4.00;3.40;;;18.20;99.90;;;;;;5051741;28;20203;-61
2022/05/16 01:58:00;;;;;;;4.20;3.10;;;18.20;99.90;;;;;;5051378;28;20221;-61
2022/05/16 02:00:30;;;;;;;3.47;3.17;;;18.10;99.90;;;;;;5048989;28;20300;-61
2022/05/16 02:02:58;;;;;;;3.67;3.30;;;18.00;99.90;;;;;;5049878;28;20287;-61
2022/05/16 02:05:28;;;;;;;3.80;3.47;;;17.90;99.90;;;;;;5051326;28;20195;-62
2022/05/16 02:07:56;;;;;;;4.47;3.20;;;17.80;99.90;;;;;;5052532;28;20197;-61
2022/05/16 02:10:27;;;;;;;5.93;3.50;;;17.80;99.90;;;;;;5053126;28;20199;-60
2022/05/16 02:12:58;;;;;;;8.03;3.37;;;17.80;99.90;;;;;;5050361;28;20196;-59
2022/05/16 02:15:29;;;;;;;8.30;3.40;;;17.90;99.90;;;;;;5050442;28;20569;-59
2022/05/16 02:17:58;;;;;;;4.67;3.03;;;17.80;99.90;;;;;;5047068;28;20200;-59
2022/05/16 02:20:27;;;;;;;3.40;3.10;;;17.80;99.90;;;;;;5049249;28;20263;-59
2022/05/16 02:25:46;;;;;;;4.73;3.20;;;17.80;99.90;;;;;;5047772;28;20240;-59
2022/05/16 02:28:16;;;;;;;6.33;3.30;;;17.70;99.90;;;;;;5052442;28;20827;-59
2022/05/16 02:30:51;;;;;;;4.63;3.47;;;17.70;99.90;;;;;;5042381;28;20185;-59
2022/05/16 02:33:21;;;;;;;12.03;3.57;;;17.70;99.90;;;;;;5048221;28;20238;-59
2022/05/16 02:35:49;;;;;;;6.13;3.50;;;17.70;99.90;;;;;;5049813;28;20208;-59
2022/05/16 02:38:20;;;;;;;6.63;3.37;;;17.70;99.90;;;;;;5048574;28;20223;-59
2022/05/16 02:40:50;;;;;;;4.33;3.20;;;17.70;99.90;;;;;;5051551;28;20213;-59
2022/05/16 02:43:18;;;;;;;5.50;3.30;;;17.70;99.90;;;;;;5063777;28;20220;-59
2022/05/16 02:45:46;;;;;;;3.40;3.30;;;17.70;99.90;;;;;;5080094;28;20291;-59
2022/05/16 02:48:15;;;;;;;7.73;3.50;;;17.70;99.90;;;;;;5054360;28;20273;-59
2022/05/16 02:50:45;;;;;;;3.43;3.13;;;17.60;99.90;;;;;;5050934;28;20189;-59
2022/05/16 02:53:14;;;;;;;4.97;3.57;;;17.70;99.90;;;;;;5046983;28;20774;-59
2022/05/16 02:55:42;;;;;;;10.47;3.50;;;17.70;99.90;;;;;;5048448;28;20239;-59
2022/05/16 02:58:12;;;;;;;9.60;3.70;;;17.70;99.90;;;;;;5048871;28;20293;-59
2022/05/16 03:00:41;;;;;;;3.60;3.30;;;17.70;99.90;;;;;;5050584;28;20649;-59
2022/05/16 03:03:09;;;;;;;7.73;3.40;;;17.70;99.90;;;;;;5050362;28;20189;-59
2022/05/16 03:05:37;;;;;;;3.60;3.30;;;17.70;99.90;;;;;;5045894;28;20193;-61
2022/05/16 03:08:06;;;;;;;9.43;3.53;;;17.70;99.90;;;;;;5046170;28;20194;-60
2022/05/16 03:10:35;;;;;;;3.67;3.20;;;17.80;99.90;;;;;;5045121;28;20198;-59
2022/05/16 03:13:03;;;;;;;8.20;3.67;;;17.70;99.90;;;;;;5049094;28;20279;-59
2022/05/16 03:15:33;;;;;;;7.10;3.40;;;17.70;99.90;;;;;;5052241;28;20663;-61
2022/05/16 03:18:01;;;;;;;5.30;3.33;;;17.70;99.90;;;;;;5051499;28;20320;-62
2022/05/16 03:20:30;;;;;;;4.23;3.47;;;17.60;99.90;;;;;;5046782;28;20192;-61
2022/05/16 03:22:58;;;;;;;5.50;3.70;;;17.60;99.90;;;;;;5051387;28;20697;-61
2022/05/16 03:25:28;;;;;;;7.27;3.83;;;17.60;99.90;;;;;;5080523;28;20236;-60
2022/05/16 03:27:56;;;;;;;3.90;3.60;;;17.50;99.90;;;;;;5048365;28;20547;-59
2022/05/16 03:30:25;;;;;;;5.03;4.07;;;17.50;99.90;;;;;;5051378;28;20191;-59
2022/05/16 03:32:55;;;;;;;4.70;3.87;;;17.50;99.90;;;;;;5054455;28;20297;-59
2022/05/16 03:35:23;;;;;;;4.67;3.87;;;17.40;99.90;;;;;;5052029;28;20201;-59
2022/05/16 03:37:52;;;;;;;7.63;3.93;;;17.40;99.90;;;;;;5050056;28;20201;-60
2022/05/16 03:43:06;;;;;;;7.73;4.13;;;17.40;99.90;;;;;;5040912;28;20216;-59
2022/05/16 03:45:34;;;;;;;5.27;3.73;;;17.40;99.90;;;;;;5050283;28;20274;-59
2022/05/16 03:48:05;;;;;;;4.97;3.47;;;17.40;99.90;;;;;;5047111;28;20635;-59
2022/05/16 03:50:34;;;;;;;4.17;3.77;;;17.40;99.90;;;;;;5050115;28;20228;-59
2022/05/16 03:53:04;;;;;;;4.23;3.63;;;17.40;99.90;;;;;;5054750;28;20677;-59
2022/05/16 03:55:33;;;;;;;6.03;4.03;;;17.40;99.90;;;;;;5050783;28;20268;-59
2022/05/16 03:58:01;;;;;;;6.00;4.27;;;17.40;99.90;;;;;;5077346;28;20325;-59
2022/05/16 04:00:29;;;;;;;8.37;3.70;;;17.40;99.90;;;;;;5050374;28;20209;-59
2022/05/16 04:03:16;;;;;;;4.23;3.83;;;17.40;99.90;;;;;;5044808;28;20704;-59
2022/05/16 04:05:45;;;;;;;4.03;3.60;;;17.40;99.90;;;;;;5058509;28;20208;-61
2022/05/16 04:08:13;;;;;;;6.13;4.07;;;17.40;99.90;;;;;;5049947;28;20196;-61
2022/05/16 04:10:42;;;;;;;4.43;3.90;;;17.40;99.90;;;;;;5050398;28;20561;-61
2022/05/16 04:13:10;;;;;;;5.03;3.80;;;17.40;99.90;;;;;;5049100;28;21142;-61
2022/05/16 04:15:39;;;;;;;5.23;3.80;;;17.40;99.90;;;;;;5049376;28;20632;-61
2022/05/16 04:18:08;;;;;;;3.97;3.67;;;17.40;99.90;;;;;;5050041;28;20253;-61
2022/05/16 04:20:37;;;;;;;10.17;3.53;;;17.40;99.90;;;;;;5081464;28;20246;-61
2022/05/16 04:23:08;;;;;;;4.33;3.83;;;17.40;99.90;;;;;;5035962;28;20736;-61
2022/05/16 04:25:37;;;;;;;6.13;3.70;;;17.40;99.90;;;;;;5076206;28;20197;-61
2022/05/16 04:28:07;;;;;;;9.03;3.83;;;17.50;99.90;;;;;;5045703;28;20716;-60
2022/05/16 04:30:37;;;;;;;8.70;3.37;;;17.50;99.90;;;;;;5042285;28;20295;-60
2022/05/16 04:33:06;;;;;;;6.70;4.27;;;17.50;99.90;;;;;;5046297;28;20234;-59
2022/05/16 04:35:39;;;;;;;9.90;3.90;;;17.50;99.90;;;;;;5051156;28;20198;-61
2022/05/16 04:38:08;;;;;;;9.23;3.77;;;17.50;99.90;;;;;;5044068;28;20720;-61
2022/05/16 04:42:40;;;;;;;10.73;3.47;;;17.50;99.90;;;;;;5047092;28;20197;-61
2022/05/16 04:43:25;;;;;;;9.20;3.57;;;17.70;99.90;;;;;;5043639;28;20212;-61
2022/05/16 04:45:54;;;;;;;4.87;3.50;;;17.80;99.90;;;;;;5047223;28;20217;-61
2022/05/16 04:48:22;;;;;;;8.93;3.53;;;17.80;99.90;;;;;;5079949;28;20212;-62
2022/05/16 04:50:52;;;;;;;6.77;3.57;;;17.80;99.90;;;;;;5050050;28;20244;-61
2022/05/16 04:53:21;;;;;;;9.27;3.93;;;17.80;99.90;;;;;;5050861;28;20280;-61
2022/05/16 04:55:49;;;;;;;6.20;3.07;;;17.90;99.90;;;;;;5047684;28;20242;-61
2022/05/16 04:58:18;;;;;;;10.23;3.50;;;17.90;99.90;;;;;;5031731;28;20189;-61
2022/05/16 05:00:46;;;;;;;6.77;3.37;;;17.90;99.90;;;;;;5052176;28;20191;-61
2022/05/16 05:03:15;;;;;;;6.67;3.50;;;17.90;99.90;;;;;;5077121;28;20252;-61
2022/05/16 05:05:46;;;;;;;5.57;3.17;;;18.00;99.90;;;;;;5054113;28;20917;-61
2022/05/16 05:08:15;;;;;;;6.60;3.20;;;18.00;99.90;;;;;;5046497;28;20678;-61
2022/05/16 05:16:20;;;;;;;3.77;3.00;;;18.10;99.90;;;;;;5050585;28;20764;-61
2022/05/16 05:18:49;;;;;;;6.73;3.30;;;18.20;99.90;;;;;;5044207;28;20205;-61
2022/05/16 05:21:20;;;;;;;3.53;2.83;;;18.20;99.90;;;;;;5049849;28;20228;-61
2022/05/16 05:23:51;;;;;;;4.80;3.00;;;18.20;99.90;;;;;;5045435;28;20725;-61
2022/05/16 05:26:20;;;;;;;6.73;3.70;;;18.10;99.90;;;;;;5051617;28;20199;-61
2022/05/16 05:28:49;;;;;;;5.00;3.20;;;18.10;99.90;;;;;;5051347;28;20200;-62
2022/05/16 05:31:20;;;;;;;3.20;3.00;;;18.10;99.90;;;;;;5052135;28;20202;-62
2022/05/16 05:33:49;;;;;;;4.80;3.17;;;18.00;99.90;;;;;;5050881;28;20248;-62
2022/05/16 05:36:18;;;;;;;5.73;3.20;;;18.00;99.90;;;;;;5048111;28;20214;-62
2022/05/16 05:38:50;;;;;;;4.53;2.73;;;17.90;99.90;;;;;;5050686;28;20276;-61
2022/05/16 05:41:22;;;;;;;3.40;3.10;;;18.00;99.90;;;;;;5053417;28;20304;-61
2022/05/16 05:43:51;;;;;;;4.20;2.87;;;18.20;99.90;;;;;;5054160;28;20222;-61
2022/05/16 05:46:19;;;;;;;4.33;2.70;;;18.40;99.90;;;;;;5027314;28;20224;-61
2022/05/16 05:48:48;;;;;;;6.73;2.77;;;18.70;99.90;;;;;;5052590;28;20211;-61
2022/05/16 05:51:20;;;;;;;4.73;2.77;;;19.00;99.90;;;;;;5054069;28;20199;-61
2022/05/16 05:53:48;;;;;;;5.43;2.50;;;19.20;99.90;;;;;;5053394;28;20616;-61
2022/05/16 05:56:17;;;;;;;3.47;2.30;;;19.40;99.90;;;;;;5052908;28;20206;-61
2022/05/16 05:58:47;;;;;;;7.77;2.63;;;19.60;99.90;;;;;;5049462;28;20196;-62
2022/05/16 06:01:15;;;;;;;3.37;2.60;;;19.70;99.90;;;;;;5050396;28;20287;-62
2022/05/16 06:03:43;;;;;;;6.70;3.10;;;19.90;99.90;;;;;;5050575;28;20204;-62
2022/05/16 06:06:12;;;;;;;4.20;2.37;;;20.00;99.90;;;;;;5044668;28;20227;-62
2022/05/16 06:08:41;;;;;;;3.03;2.43;;;20.30;99.90;;;;;;5050740;28;20287;-62
2022/05/16 06:11:09;;;;;;;5.07;2.47;;;20.30;99.90;;;;;;5052216;28;20189;-62
2022/05/16 06:13:38;;;;;;;2.53;2.43;;;20.30;99.90;;;;;;5047643;28;20271;-62
2022/05/16 06:16:09;;;;;;;6.33;2.43;;;20.30;99.90;;;;;;5053205;28;20656;-62
2022/05/16 06:18:38;;;;;;;5.23;2.60;;;20.30;99.90;;;;;;5051410;28;20218;-62
2022/05/16 06:21:06;;;;;;;3.80;2.70;;;20.50;99.90;;;;;;5052157;28;20220;-62
2022/05/16 06:23:35;;;;;;;6.40;2.63;;;20.60;99.90;;;;;;5053067;28;20672;-62
2022/05/16 06:26:05;;;;;;;3.60;2.60;;;20.90;99.90;;;;;;5053993;28;20640;-62
2022/05/16 06:28:37;;;;;;;2.77;2.40;;;21.20;99.90;;;;;;5051274;28;20208;-62
2022/05/16 06:31:09;;;;;;;5.93;2.40;;;21.20;99.90;;;;;;5086075;28;20196;-62
2022/05/16 06:33:39;;;;;;;8.63;2.47;;;21.40;99.90;;;;;;5053112;28;20220;-62
2022/05/16 06:36:08;;;;;;;2.20;2.00;;;21.70;99.90;;;;;;5080964;28;20205;-61
2022/05/16 06:38:36;;;;;;;6.93;2.70;;;21.90;99.90;;;;;;5055407;28;20295;-62
2022/05/16 06:41:05;;;;;;;2.93;2.30;;;21.90;99.90;;;;;;5081951;28;20193;-61
2022/05/16 06:43:35;;;;;;;6.00;2.43;;;21.80;99.90;;;;;;5039984;28;20253;-61
2022/05/16 06:46:04;;;;;;;4.60;2.60;;;21.70;99.90;;;;;;5051218;28;20275;-62
2022/05/16 06:48:32;;;;;;;3.57;2.67;;;21.70;99.90;;;;;;5052803;28;20232;-61
2022/05/16 06:51:02;;;;;;;3.77;2.50;;;21.70;99.90;;;;;;5051244;28;20201;-62
2022/05/16 06:53:32;;;;;;;8.47;2.83;;;21.80;99.90;;;;;;5051453;28;20196;-62
2022/05/16 06:56:01;;;;;;;4.90;2.50;;;21.90;99.90;;;;;;5051278;28;20193;-62
2022/05/16 06:58:29;;;;;;;3.43;2.43;;;22.20;99.90;;;;;;5048547;28;20204;-62
2022/05/16 07:00:59;;;;;;;5.50;2.80;;;22.40;99.90;;;;;;5054776;28;20433;-62
2022/05/16 07:03:27;;;;;;;6.77;2.87;;;22.60;99.90;;;;;;5046120;28;20421;-62
2022/05/16 07:05:56;;;;;;;9.20;3.10;;;22.70;99.90;;;;;;5051332;28;20604;-62
2022/05/16 07:08:26;;;;;;;4.03;2.47;;;22.40;99.90;;;;;;5043799;28;20258;-62
2022/05/16 07:10:54;;;;;;;3.33;2.43;;;22.20;99.90;;;;;;5052131;28;20251;-62
2022/05/16 07:13:24;;;;;;;4.57;3.00;;;22.00;99.90;;;;;;5051709;28;20706;-61
2022/05/16 07:15:53;;;;;;;4.80;3.10;;;21.90;99.90;;;;;;5049139;28;20561;-61
2022/05/16 07:18:22;;;;;;;5.53;3.03;;;21.90;99.90;;;;;;5052414;28;20206;-61
2022/05/16 07:20:51;;;;;;;9.53;2.67;;;22.10;99.90;;;;;;5051835;28;20205;-61
2022/05/16 07:23:20;;;;;;;6.87;2.60;;;22.40;99.90;;;;;;5049244;28;20306;-61
2022/05/16 07:28:36;;;;;;;4.10;2.50;;;22.40;99.90;;;;;;5050826;28;20193;-62
2022/05/16 07:31:05;;;;;;;5.63;2.70;;;22.50;99.90;;;;;;5045986;28;20656;-59
2022/05/16 07:33:34;;;;;;;3.50;2.67;;;22.80;99.90;;;;;;5048120;28;20236;-59
2022/05/16 07:36:05;;;;;;;5.60;2.90;;;23.00;99.90;;;;;;5076408;28;20206;-60
2022/05/16 07:38:33;;;;;;;9.73;3.27;;;23.20;99.90;;;;;;5036882;28;20229;-60
2022/05/16 07:41:04;;;;;;;4.33;3.03;;;23.30;99.90;;;;;;5051012;28;20199;-60
2022/05/16 07:43:35;;;;;;;6.57;2.80;;;23.40;99.90;;;;;;5051519;28;20263;-60
2022/05/16 07:46:04;;;;;;;5.90;2.70;;;22.90;99.90;;;;;;5050836;28;20209;-59
2022/05/16 07:48:33;;;;;;;4.03;2.87;;;22.60;99.90;;;;;;5049767;28;20291;-61
2022/05/16 07:51:01;;;;;;;5.70;3.00;;;22.30;99.90;;;;;;5046935;28;20255;-60
2022/05/16 07:53:33;;;;;;;7.13;2.80;;;22.10;99.90;;;;;;5049902;28;20196;-62
2022/05/16 07:56:03;;;;;;;8.67;3.20;;;22.10;99.90;;;;;;5051439;28;20247;-63
2022/05/16 07:58:32;;;;;;;7.20;3.20;;;22.10;99.90;;;;;;5050880;28;20193;-62
2022/05/16 08:01:00;;;;;;;4.60;3.03;;;22.20;99.90;;;;;;5049036;28;20201;-62
2022/05/16 08:03:32;;;;;;;3.87;3.43;;;22.10;99.90;;;;;;5045275;28;20280;-63
2022/05/16 08:06:00;;;;;;;5.60;3.23;;;22.10;99.90;;;;;;5051517;28;20664;-62
2022/05/16 08:11:16;;;;;;;7.40;3.90;;;22.20;99.90;;;;;;5050186;28;20196;-62
2022/05/16 08:13:45;;;;;;;5.63;3.73;;;22.10;99.90;;;;;;5042585;28;20288;-63
2022/05/16 08:16:13;;;;;;;5.57;3.67;;;22.10;99.90;;;;;;5045741;28;20641;-63
2022/05/16 08:18:43;;;;;;;7.87;4.23;;;22.10;99.90;;;;;;5050536;28;20817;-63
2022/05/16 08:21:12;;;;;;;11.83;4.33;;;22.10;99.90;;;;;;5049117;28;20185;-62
2022/05/16 08:23:41;;;;;;;7.77;4.30;;;22.20;99.90;;;;;;5050583;28;20288;-63
2022/05/16 08:26:10;;;;;;;9.03;4.07;;;22.20;99.90;;;;;;5049399;28;20199;-60
2022/05/16 08:28:40;;;;;;;4.40;3.93;;;22.30;99.90;;;;;;5051123;28;20248;-62
2022/05/16 08:31:09;;;;;;;6.43;4.37;;;22.40;99.90;;;;;;5049211;28;20196;-62
2022/05/16 08:33:40;;;;;;;7.73;4.50;;;22.60;99.90;;;;;;5050687;28;20241;-63
2022/05/16 08:41:53;;;;;;;9.70;4.30;;;22.30;99.90;;;;;;5047842;28;20193;-62
2022/05/16 08:44:28;;;;;;;7.77;4.00;;;22.30;99.90;;;;;;5053362;28;20281;-62
2022/05/16 08:47:12;;;;;;;10.90;4.63;;;22.20;99.90;;;;;;5054355;28;20666;-60
2022/05/16 08:49:45;;;;;;;16.77;5.03;;;22.20;99.90;;;;;;5053656;28;20559;-60
2022/05/16 08:52:23;;;;;;;9.07;4.93;;;22.00;99.90;;;;;;5054435;28;20209;-62
2022/05/16 08:54:58;;;;;;;8.30;5.00;;;21.80;99.90;;;;;;5049948;28;20573;-62
2022/05/16 08:57:31;;;;;;;7.63;4.70;;;21.70;99.90;;;;;;5049622;28;20219;-62
2022/05/16 09:00:07;;;;;;;8.63;4.77;;;21.70;99.90;;;;;;5055000;28;20207;-60
2022/05/16 09:02:36;;;;;;;7.20;5.00;;;21.80;99.90;;;;;;5045931;28;20559;-62
2022/05/16 09:05:13;;;;;;;6.37;5.33;;;21.60;99.90;;;;;;5054993;28;20220;-62
2022/05/16 09:07:46;;;;;;;12.07;5.80;;;21.50;99.90;;;;;;5053773;28;20200;-62
2022/05/16 09:10:17;;;;;;;20.73;6.17;;;21.40;99.90;;;;;;5053583;28;20262;-63
2022/05/16 09:12:56;;;;;;;9.73;5.40;;;21.50;99.90;;;;;;5085004;28;20283;-62
2022/05/16 09:15:37;;;;;;;11.10;5.67;;;21.50;99.90;;;;;;5051854;28;20208;-62
2022/05/16 09:18:26;;;;;;;19.43;6.47;;;21.60;99.90;;;;;;5024372;28;20188;-62
2022/05/16 09:21:08;;;;;;;7.13;5.60;;;21.70;99.90;;;;;;5055478;28;20184;-62
2022/05/16 09:23:48;;;;;;;6.53;5.50;;;21.70;99.90;;;;;;5049455;28;20188;-62
2022/05/16 09:26:33;;;;;;;7.80;5.57;;;21.60;99.90;;;;;;5064576;28;20219;-62
2022/05/16 09:29:12;;;;;;;9.53;6.37;;;21.50;99.90;;;;;;5049174;28;20215;-62
2022/05/16 09:31:46;;;;;;;10.23;5.37;;;21.40;99.90;;;;;;5052978;28;20710;-63
2022/05/16 09:34:22;;;;;;;10.03;5.70;;;21.40;99.90;;;;;;5050492;28;20228;-62
2022/05/16 09:36:50;;;;;;;6.30;5.70;;;21.40;99.90;;;;;;5042292;28;20695;-60
2022/05/16 09:39:22;;;;;;;8.90;5.90;;;21.40;99.90;;;;;;5051872;28;20689;-62
2022/05/16 09:42:01;;;;;;;7.97;5.90;;;21.50;99.90;;;;;;5055170;28;20197;-63
2022/05/16 09:44:32;;;;;;;10.63;6.03;;;21.40;99.90;;;;;;5048624;28;20218;-63
2022/05/16 09:47:21;;;;;;;12.90;5.73;;;21.40;99.90;;;;;;5079096;28;20197;-62
2022/05/16 09:50:21;;;;;;;14.77;5.93;;;21.40;99.90;;;;;;5049365;28;20204;-62
2022/05/16 09:53:09;;;;;;;10.47;6.40;;;21.70;99.90;;;;;;5024322;28;20204;-62
2022/05/16 09:55:46;;;;;;;11.40;6.10;;;21.80;99.90;;;;;;5048427;28;20204;-63
2022/05/16 09:58:18;;;;;;;7.80;5.27;;;21.90;99.90;;;;;;5050843;28;20245;-62
2022/05/16 10:00:55;;;;;;;8.03;5.80;;;22.00;99.90;;;;;;5050914;28;20224;-62
2022/05/16 10:03:30;;;;;;;18.63;6.00;;;22.00;99.90;;;;;;5049721;28;20645;-63
2022/05/16 10:06:01;;;;;;;6.73;5.53;;;22.00;99.90;;;;;;5047545;28;21033;-64
2022/05/16 10:08:33;;;;;;;15.40;5.50;;;22.10;99.90;;;;;;5052372;28;20659;-63
2022/05/16 10:11:06;;;;;;;8.97;5.50;;;22.10;99.90;;;;;;5074906;28;20193;-63
2022/05/16 10:13:35;;;;;;;16.93;6.17;;;22.10;99.90;;;;;;5084207;28;20227;-63
2022/05/16 10:16:11;;;;;;;10.43;5.37;;;22.30;99.90;;;;;;5051669;28;20195;-64
2022/05/16 10:18:48;;;;;;;8.77;5.57;;;22.40;99.90;;;;;;5048567;28;20636;-63
2022/05/16 10:21:24;;;;;;;6.73;5.17;;;22.30;99.90;;;;;;5048381;28;20276;-62
2022/05/16 10:23:53;;;;;;;5.13;4.67;;;22.30;99.90;;;;;;5051725;28;20196;-62
2022/05/16 10:26:25;;;;;;;7.83;4.37;;;22.60;99.90;;;;;;5044007;28;20236;-63
2022/05/16 10:28:58;;;;;;;6.67;5.00;;;22.80;99.90;;;;;;5050886;28;20204;-63
2022/05/16 10:34:27;;;;;;;7.03;4.70;;;22.80;99.90;;;;;;5046213;28;20788;-62
2022/05/16 10:36:57;;;;;;;12.63;5.20;;;22.80;99.90;;;;;;5052170;28;20197;-63
2022/05/16 10:39:29;;;;;;;13.23;4.43;;;22.70;99.90;;;;;;5054250;28;20300;-63
2022/05/16 10:42:02;;;;;;;4.83;3.90;;;22.50;99.90;;;;;;5050546;28;20606;-63
2022/05/16 10:44:37;;;;;;;7.97;3.77;;;22.20;99.90;;;;;;5049549;28;20276;-62
2022/05/16 10:47:13;;;;;;;15.00;4.20;;;22.00;99.90;;;;;;5046020;28;20185;-62
2022/05/16 10:49:52;;;;;;;10.37;3.73;;;22.00;99.90;;;;;;5047838;28;20759;-60
2022/05/16 10:52:35;;;;;;;6.03;4.07;;;22.20;99.90;;;;;;5047945;28;20216;-62
2022/05/16 10:55:05;;;;;;;10.97;4.07;;;22.30;99.90;;;;;;5048529;28;20681;-62
2022/05/16 10:58:11;;;;;;;9.33;4.27;;;22.40;99.90;;;;;;5049211;28;20199;-63
2022/05/16 11:00:47;;;;;;;8.07;3.60;;;22.30;99.90;;;;;;5022301;28;20635;-62
2022/05/16 11:04:04;;;;;;;8.20;3.67;;;22.30;99.90;;;;;;5049394;28;20599;-62
2022/05/16 11:06:55;;;;;;;5.90;3.80;;;22.40;99.90;;;;;;5048051;28;20229;-63
2022/05/16 11:09:33;;;;;;;6.83;3.60;;;22.90;99.90;;;;;;5077617;28;20188;-62
2022/05/16 11:12:08;;;;;;;6.13;3.87;;;23.10;99.90;;;;;;5044267;28;20287;-62
2022/05/16 11:14:46;;;;;;;13.10;4.30;;;23.20;99.90;;;;;;5047472;28;20196;-62
2022/05/16 11:17:24;;;;;;;6.27;3.57;;;23.20;99.90;;;;;;5050192;28;20189;-62
2022/05/16 11:20:04;;;;;;;5.77;3.60;;;23.40;99.90;;;;;;5050316;28;20193;-62
2022/05/16 11:22:39;;;;;;;7.33;3.20;;;23.80;99.90;;;;;;5085006;28;20206;-62
2022/05/16 11:25:13;;;;;;;7.53;4.10;;;24.10;99.90;;;;;;5046461;28;20208;-62
2022/05/16 11:28:01;;;;;;;8.47;3.50;;;24.10;99.90;;;;;;5050118;28;20214;-66
2022/05/16 11:30:38;;;;;;;10.07;3.73;;;24.50;99.90;;;;;;5049620;28;20684;-63
2022/05/16 11:33:21;;;;;;;11.67;4.10;;;24.60;99.90;;;;;;5038869;28;20342;-63
2022/05/16 11:35:52;;;;;;;10.13;3.50;;;24.70;99.90;;;;;;5049503;28;20234;-60
2022/05/16 11:38:49;;;;;;;8.77;3.70;;;24.60;99.90;;;;;;5048805;28;20212;-60
2022/05/16 11:41:29;;;;;;;13.67;4.00;;;24.30;99.90;;;;;;5043709;28;20216;-59
2022/05/16 11:44:11;;;;;;;12.73;3.93;;;24.20;99.90;;;;;;5047037;28;20232;-60
2022/05/16 11:46:48;;;;;;;15.33;3.47;;;24.00;99.90;;;;;;5078382;28;20216;-62
2022/05/16 11:49:44;;;;;;;11.70;3.97;;;23.80;99.90;;;;;;5041706;28;20253;-61
2022/05/16 11:52:40;;;;;;;13.30;4.10;;;23.70;99.90;;;;;;5052594;28;20203;-63
2022/05/16 12:00:53;;;;;;;8.53;3.17;;;23.50;99.90;;;;;;5045443;28;20218;-63
2022/05/16 12:03:23;;;;;;;5.13;3.00;;;23.30;99.90;;;;;;5085014;28;20201;-64
2022/05/16 12:06:15;;;;;;;6.00;2.80;;;23.20;99.90;;;;;;5031749;28;20214;-64
2022/05/16 12:08:47;;;;;;;5.63;3.03;;;23.30;99.90;;;;;;5036061;28;20274;-69
2022/05/16 12:11:22;;;;;;;5.87;2.93;;;23.30;99.90;;;;;;5048169;28;20240;-62
2022/05/16 12:14:10;;;;;;;6.90;2.70;;;23.20;99.90;;;;;;5076632;28;20186;-65
2022/05/16 12:16:54;;;;;;;5.63;2.67;;;23.00;99.90;;;;;;5049991;28;20275;-66
2022/05/16 12:19:30;;;;;;;10.17;2.73;;;22.80;99.90;;;;;;5047781;28;20285;-62
2022/05/16 12:22:02;;;;;;;11.93;3.00;;;22.80;99.90;;;;;;5042900;28;20219;-63
2022/05/16 12:24:42;;;;;;;11.97;3.27;;;22.70;99.90;;;;;;5048979;28;20624;-63
2022/05/16 12:27:28;;;;;;;4.97;2.60;;;22.60;99.90;;;;;;5049488;28;20298;-63
2022/05/16 12:29:58;;;;;;;6.27;2.77;;;22.50;99.90;;;;;;5045544;28;20192;-62
2022/05/16 12:32:47;;;;;;;9.40;2.40;;;22.50;99.90;;;;;;5079600;28;20192;-63
2022/05/16 12:35:35;;;;;;;11.83;2.77;;;22.60;99.90;;;;;;5050254;28;20278;-62
2022/05/16 12:38:04;;;;;;;9.93;2.77;;;22.70;99.90;;;;;;5045356;28;20208;-63
2022/05/16 12:40:50;;;;;;;4.73;2.23;;;22.60;99.90;;;;;;5083779;28;20197;-63
2022/05/16 12:43:34;;;;;;;7.03;2.07;;;22.60;99.90;;;;;;5051331;28;20200;-63
2022/05/16 12:46:15;;;;;;;5.03;2.10;;;22.80;99.90;;;;;;5049103;28;20718;-63
2022/05/16 12:48:59;;;;;;;6.03;2.13;;;22.90;99.90;;;;;;5051479;28;20209;-63
2022/05/16 12:51:44;;;;;;;3.97;2.53;;;23.20;99.90;;;;;;5085864;28;20186;-63
2022/05/16 12:54:45;;;;;;;2.00;1.90;;;23.30;99.90;;;;;;5048479;28;20240;-63
2022/05/16 12:57:50;;;;;;;9.57;2.47;;;23.10;99.90;;;;;;5048947;28;20300;-62
2022/05/16 13:00:24;;;;;;;6.37;2.27;;;22.90;99.90;;;;;;5041872;28;20204;-62
2022/05/16 13:03:14;;;;;;;8.77;2.40;;;22.80;99.90;;;;;;5051716;28;20196;-62
2022/05/16 13:05:46;;;;;;;7.43;2.00;;;22.80;99.90;;;;;;5045919;28;20702;-62
2022/05/16 13:08:42;;;;;;;7.60;2.20;;;23.10;99.90;;;;;;5055217;28;20216;-62
2022/05/16 13:11:23;;;;;;;5.00;2.00;;;23.10;99.90;;;;;;5042659;28;20629;-63
2022/05/16 13:14:05;;;;;;;5.13;2.50;;;23.30;99.90;;;;;;5044665;28;20189;-62
2022/05/16 13:16:38;;;;;;;4.33;2.03;;;23.20;99.90;;;;;;5052294;28;20194;-60
2022/05/16 13:19:11;;;;;;;11.13;2.37;;;23.20;99.90;;;;;;5051485;28;20201;-63
2022/05/16 13:21:42;;;;;;;3.13;1.83;;;23.30;99.90;;;;;;5057202;28;20204;-63
2022/05/16 13:24:13;;;;;;;5.57;2.30;;;23.20;99.90;;;;;;5059201;28;20529;-62
2022/05/16 13:29:40;;;;;;;3.93;2.13;;;23.10;99.90;;;;;;5055320;28;20719;-63
2022/05/16 13:32:13;;;;;;;5.03;1.90;;;23.00;99.90;;;;;;5053441;28;20671;-62
2022/05/16 13:34:45;;;;;;;9.77;2.20;;;23.10;99.90;;;;;;5057875;28;20298;-62
2022/05/16 13:37:19;;;;;;;3.70;2.10;;;23.10;99.90;;;;;;5087622;28;20189;-62
2022/05/16 13:39:50;;;;;;;8.90;2.30;;;23.20;99.90;;;;;;5053401;28;20239;-63
2022/05/16 13:42:21;;;;;;;6.43;2.23;;;23.10;99.90;;;;;;5053517;28;20235;-62
2022/05/16 13:44:55;;;;;;;5.63;2.17;;;23.00;99.90;;;;;;5052048;28;20232;-63
2022/05/16 13:47:27;;;;;;;5.90;2.00;;;23.00;99.90;;;;;;5047664;28;20219;-63
2022/05/16 13:49:55;;;;;;;7.30;2.30;;;23.00;99.90;;;;;;5052829;28;20199;-63
2022/05/16 13:52:27;;;;;;;5.20;1.97;;;23.00;99.90;;;;;;5048491;28;20676;-62
2022/05/16 13:54:57;;;;;;;5.23;2.07;;;23.00;99.90;;;;;;5053108;28;20284;-62
2022/05/16 13:57:28;;;;;;;5.50;2.03;;;23.20;99.90;;;;;;5048979;28;20197;-62